« Back
NWS Peachtree City, Ga » Text Product » ATL Terminal Aerodrome Forecast


Printer-friendly Version
Current Version              Previous Versions:   1  2  3  4  5  6  7  8  9  

Terminal Aerodrome Forecast

955
FTUS42 KFFC 221700
TAFATL
TAF
KATL 221722Z 2218/2324 35010G16KT P6SM SKC
     FM230100 35004KT P6SM SKC
     FM231600 32005KT P6SM FEW250=

USA.gov is the U.S. government's official web portal to all federal, state and local government web resources and services.